createdAt,value
2023-03-11T00:00:13.729Z,72.65
2023-03-11T00:02:41.167Z,73.60
2023-03-11T00:05:09.302Z,75.10
2023-03-11T00:07:37.827Z,75.32
2023-03-11T00:10:05.052Z,75.63
2023-03-11T00:12:31.940Z,75.05
2023-03-11T00:14:58.730Z,75.29
2023-03-11T00:17:25.619Z,75.43
2023-03-11T00:19:52.935Z,74.28
2023-03-11T00:22:19.870Z,74.40
2023-03-11T00:24:46.603Z,76.95
2023-03-11T00:27:13.386Z,77.18
2023-03-11T00:29:40.142Z,77.03
2023-03-11T00:32:07.847Z,77.58
2023-03-11T00:34:37.049Z,75.71
2023-03-11T00:37:03.983Z,78.05
2023-03-11T00:39:30.806Z,77.91
2023-03-11T00:41:57.777Z,76.17
2023-03-11T00:44:24.779Z,76.01
2023-03-11T00:46:51.864Z,78.37
2023-03-11T00:49:18.713Z,79.39
2023-03-11T00:51:45.615Z,79.22
2023-03-11T00:54:12.449Z,79.73
2023-03-11T00:56:41.724Z,77.43
2023-03-11T00:59:08.916Z,79.11
2023-03-11T01:01:36.001Z,79.58
2023-03-11T01:04:02.859Z,79.67
2023-03-11T01:06:39.198Z,79.42
2023-03-11T01:09:11.485Z,78.96
2023-03-11T01:11:38.345Z,78.22
2023-03-11T01:14:05.157Z,79.63
2023-03-11T01:16:32.036Z,79.74
2023-03-11T01:18:58.902Z,80.22
2023-03-11T01:21:26.197Z,80.26
2023-03-11T01:23:53.083Z,80.38
2023-03-11T01:26:20.110Z,79.30
2023-03-11T01:28:47.451Z,79.94
2023-03-11T01:31:14.369Z,77.88
2023-03-11T01:33:41.257Z,78.32
2023-03-11T01:36:08.572Z,79.04
2023-03-11T01:38:35.700Z,78.93
2023-03-11T01:41:02.647Z,79.23
2023-03-11T01:43:44.616Z,78.46
2023-03-11T01:46:30.650Z,78.25
2023-03-11T01:48:59.900Z,78.37
2023-03-11T01:51:36.896Z,78.49
2023-03-11T01:54:08.387Z,77.95
2023-03-11T01:56:35.753Z,78.18
2023-03-11T01:59:02.767Z,77.36
2023-03-11T02:01:29.925Z,77.72
2023-03-11T02:03:58.693Z,77.08
2023-03-11T02:06:26.641Z,77.51
2023-03-11T02:08:54.381Z,78.54
2023-03-11T02:11:27.857Z,79.76
2023-03-11T02:13:58.286Z,78.61
2023-03-11T02:16:25.694Z,78.55
2023-03-11T02:18:52.704Z,78.44
2023-03-11T02:21:30.533Z,78.28
2023-03-11T02:24:24.477Z,76.80
2023-03-11T02:27:02.166Z,76.64
2023-03-11T02:29:30.299Z,79.11
2023-03-11T02:31:58.843Z,80.11
2023-03-11T02:34:30.428Z,80.48
2023-03-11T02:36:59.329Z,80.50
2023-03-11T02:39:46.849Z,79.27
2023-03-11T02:42:33.342Z,79.12
2023-03-11T02:45:09.617Z,79.16
2023-03-11T02:47:38.686Z,80.56
2023-03-11T02:50:08.124Z,79.78
2023-03-11T02:52:36.078Z,80.40
2023-03-11T02:55:04.399Z,80.30
2023-03-11T02:57:31.313Z,80.60
2023-03-11T03:00:00.080Z,78.41
2023-03-11T03:02:27.079Z,79.77
2023-03-11T03:04:53.958Z,77.51
2023-03-11T03:07:20.907Z,78.56
2023-03-11T03:09:47.769Z,80.37
2023-03-11T03:12:14.536Z,80.75
2023-03-11T03:14:41.481Z,79.42
2023-03-11T03:17:10.081Z,77.63
2023-03-11T03:19:36.997Z,80.44
2023-03-11T03:22:04.106Z,80.02
2023-03-11T03:24:31.072Z,79.97
2023-03-11T03:26:58.069Z,78.35
2023-03-11T03:29:25.041Z,79.67
2023-03-11T03:31:52.408Z,78.83
2023-03-11T03:34:19.627Z,79.77
2023-03-11T03:36:46.601Z,79.88
2023-03-11T03:39:14.932Z,79.38
2023-03-11T03:41:42.468Z,79.51
2023-03-11T03:44:10.367Z,77.90
2023-03-11T03:46:38.625Z,78.21
2023-03-11T03:49:07.866Z,78.04
2023-03-11T03:51:35.351Z,76.93
2023-03-11T03:54:13.158Z,77.29
2023-03-11T03:56:39.992Z,77.11
2023-03-11T03:59:07.136Z,76.22
2023-03-11T04:01:39.259Z,77.43
2023-03-11T04:04:06.187Z,77.32
2023-03-11T04:06:33.187Z,77.46
2023-03-11T04:09:04.191Z,78.34
2023-03-11T04:11:34.194Z,78.84
2023-03-11T04:14:02.748Z,77.30
2023-03-11T04:16:31.525Z,78.57
2023-03-11T04:19:05.829Z,78.85
2023-03-11T04:21:33.880Z,77.68
2023-03-11T04:24:01.534Z,78.03
2023-03-11T04:26:33.023Z,78.20
2023-03-11T04:29:00.243Z,77.63
2023-03-11T04:31:29.763Z,78.99
2023-03-11T04:33:59.637Z,79.03
2023-03-11T04:36:26.571Z,77.32
2023-03-11T04:38:53.622Z,78.76
2023-03-11T04:41:21.945Z,79.48
2023-03-11T04:43:49.163Z,80.14
2023-03-11T04:46:16.388Z,79.77
2023-03-11T04:48:43.307Z,79.79
2023-03-11T04:51:10.230Z,79.25
2023-03-11T04:53:37.612Z,79.82
2023-03-11T04:56:04.950Z,80.44
2023-03-11T04:58:31.908Z,80.32
2023-03-11T05:00:58.928Z,80.56
2023-03-11T05:03:26.237Z,80.47
2023-03-11T05:05:56.741Z,78.47
2023-03-11T05:08:24.956Z,80.39
2023-03-11T05:10:53.168Z,78.77
2023-03-11T05:13:21.551Z,79.91
2023-03-11T05:15:49.771Z,81.16
2023-03-11T05:18:17.198Z,80.55
2023-03-11T05:20:44.666Z,79.67
2023-03-11T05:23:12.662Z,81.60
2023-03-11T05:25:40.182Z,82.22
2023-03-11T05:28:08.176Z,80.49
2023-03-11T05:30:40.463Z,81.89
2023-03-11T05:33:08.807Z,82.13
2023-03-11T05:35:36.605Z,83.19
2023-03-11T05:38:03.892Z,83.81
2023-03-11T05:40:31.035Z,83.51
2023-03-11T05:42:57.962Z,83.44
2023-03-11T05:45:26.714Z,83.17
2023-03-11T05:47:55.598Z,83.44
2023-03-11T05:50:22.572Z,82.23
2023-03-11T05:52:50.604Z,82.71
2023-03-11T05:55:18.015Z,82.09
2023-03-11T05:57:46.054Z,82.38
2023-03-11T06:00:13.380Z,82.90
2023-03-11T06:02:41.272Z,81.80
2023-03-11T06:05:13.684Z,81.98
2023-03-11T06:07:41.993Z,82.23
2023-03-11T06:10:10.023Z,82.43
2023-03-11T06:12:38.730Z,82.54
2023-03-11T06:15:25.894Z,82.03
2023-03-11T06:17:53.581Z,81.98
2023-03-11T06:20:20.574Z,82.02
2023-03-11T06:22:50.847Z,81.61
2023-03-11T06:25:19.463Z,81.62
2023-03-11T06:27:52.611Z,81.27
2023-03-11T06:30:21.063Z,80.42
2023-03-11T06:32:56.259Z,81.21
2023-03-11T06:35:23.471Z,81.52
2023-03-11T06:37:50.362Z,81.74
2023-03-11T06:40:18.138Z,81.45
2023-03-11T06:42:48.187Z,81.54
2023-03-11T06:45:15.615Z,81.81
2023-03-11T06:47:43.976Z,82.51
2023-03-11T06:50:11.219Z,81.69
2023-03-11T06:52:38.004Z,81.94
2023-03-11T06:55:07.855Z,81.69
2023-03-11T06:57:35.905Z,81.86
2023-03-11T07:00:12.368Z,81.46
2023-03-11T07:02:42.348Z,80.37
2023-03-11T07:05:09.785Z,79.92
2023-03-11T07:07:36.659Z,81.22
2023-03-11T07:10:04.815Z,80.19
2023-03-11T07:12:31.620Z,81.06
2023-03-11T07:14:59.457Z,81.22
2023-03-11T07:17:28.295Z,81.35
2023-03-11T07:19:55.543Z,81.94
2023-03-11T07:22:22.394Z,80.60
2023-03-11T07:24:49.670Z,78.88
2023-03-11T07:27:17.524Z,78.92
2023-03-11T07:29:44.769Z,78.47
2023-03-11T07:32:11.512Z,79.54
2023-03-11T07:34:38.739Z,80.49
2023-03-11T07:37:05.745Z,80.81
2023-03-11T07:39:32.559Z,81.09
2023-03-11T07:41:59.311Z,81.43
2023-03-11T07:44:34.313Z,81.33
2023-03-11T07:47:05.235Z,80.42
2023-03-11T07:49:32.695Z,80.36
2023-03-11T07:51:59.616Z,80.62
2023-03-11T07:54:26.584Z,79.93
2023-03-11T07:56:53.438Z,80.09
2023-03-11T07:59:20.229Z,79.92
2023-03-11T08:01:47.406Z,78.53
2023-03-11T08:04:16.690Z,78.59
2023-03-11T08:06:46.358Z,79.28
2023-03-11T08:09:13.760Z,79.15
2023-03-11T08:11:40.959Z,78.03
2023-03-11T08:14:07.858Z,78.80
2023-03-11T08:16:35.023Z,78.49
2023-03-11T08:19:02.215Z,78.72
2023-03-11T08:21:32.180Z,78.06
2023-03-11T08:24:01.035Z,78.57
2023-03-11T08:26:28.271Z,79.31
2023-03-11T08:28:55.791Z,78.29
2023-03-11T08:31:31.239Z,77.84
2023-03-11T08:34:01.562Z,77.86
2023-03-11T08:36:29.327Z,78.08
2023-03-11T08:38:56.100Z,77.72
2023-03-11T08:41:23.294Z,77.50
2023-03-11T08:43:52.360Z,78.09
2023-03-11T08:46:34.602Z,77.95
2023-03-11T08:49:02.293Z,77.63
2023-03-11T08:51:31.410Z,77.82
2023-03-11T08:53:59.141Z,76.44
2023-03-11T08:56:26.292Z,76.40
2023-03-11T08:58:53.463Z,75.66
2023-03-11T09:01:20.465Z,75.71
2023-03-11T09:03:47.415Z,75.32
2023-03-11T09:06:16.237Z,74.75
2023-03-11T09:08:44.279Z,75.21
2023-03-11T09:11:13.679Z,74.32
2023-03-11T09:13:41.576Z,74.73
2023-03-11T09:16:14.681Z,74.65
2023-03-11T09:18:41.823Z,74.01
2023-03-11T09:21:09.700Z,74.02
2023-03-11T09:23:36.597Z,73.93
2023-03-11T09:26:04.069Z,73.31
2023-03-11T09:28:30.907Z,73.31
2023-03-11T09:30:58.175Z,73.17
2023-03-11T09:33:25.218Z,72.53
2023-03-11T09:35:52.268Z,72.09
2023-03-11T09:38:19.117Z,71.96
2023-03-11T09:40:52.713Z,70.67
2023-03-11T09:43:31.614Z,72.26
2023-03-11T09:46:21.193Z,72.14
2023-03-11T09:48:57.021Z,71.26
2023-03-11T09:51:31.284Z,71.17
2023-03-11T09:54:06.217Z,70.95
2023-03-11T09:56:35.650Z,69.41
2023-03-11T09:59:06.755Z,68.18
2023-03-11T10:01:42.748Z,68.13
2023-03-11T10:04:17.334Z,66.62
2023-03-11T10:06:45.975Z,67.39
2023-03-11T10:09:12.942Z,67.92
2023-03-11T10:12:06.959Z,67.53
2023-03-11T10:14:40.125Z,67.00
2023-03-11T10:17:28.011Z,67.32
2023-03-11T10:19:57.510Z,67.14
2023-03-11T10:22:33.576Z,67.27
2023-03-11T10:25:10.515Z,66.46
2023-03-11T10:27:49.709Z,67.16
2023-03-11T10:30:28.584Z,65.11
2023-03-11T10:33:10.966Z,64.65
2023-03-11T10:35:40.847Z,65.20
2023-03-11T10:38:15.700Z,63.86
2023-03-11T10:40:47.776Z,64.12
2023-03-11T10:44:01.109Z,64.31
2023-03-11T10:46:29.095Z,63.97
2023-03-11T10:48:56.178Z,64.92
2023-03-11T10:51:26.952Z,63.81
2023-03-11T10:53:58.301Z,62.78
2023-03-11T10:56:29.450Z,63.73
2023-03-11T10:58:58.024Z,63.33
2023-03-11T11:01:25.072Z,63.34
2023-03-11T11:03:55.952Z,63.35
2023-03-11T11:06:22.876Z,62.25
2023-03-11T11:08:49.739Z,63.25
2023-03-11T11:11:24.056Z,62.94
2023-03-11T11:13:58.858Z,63.00
2023-03-11T11:16:26.482Z,60.83
2023-03-11T11:19:08.934Z,61.39
2023-03-11T11:21:43.899Z,62.40
2023-03-11T11:24:29.415Z,62.36
2023-03-11T11:27:17.031Z,62.63
2023-03-11T11:29:44.255Z,63.13
2023-03-11T11:32:26.779Z,63.17
2023-03-11T11:35:03.543Z,61.13
2023-03-11T11:37:32.973Z,60.15
2023-03-11T11:40:15.846Z,61.47
2023-03-11T11:42:55.958Z,60.74
2023-03-11T11:45:32.443Z,59.95
2023-03-11T11:48:04.245Z,59.14
2023-03-11T11:50:44.022Z,57.66
2023-03-11T11:53:20.096Z,59.10
2023-03-11T11:55:52.677Z,58.04
2023-03-11T11:58:20.673Z,56.31
2023-03-11T12:00:56.688Z,56.83
2023-03-11T12:04:01.325Z,55.86
2023-03-11T12:06:40.455Z,56.16
2023-03-11T12:09:29.001Z,57.34
2023-03-11T12:12:02.221Z,57.87
2023-03-11T12:14:31.420Z,57.60
2023-03-11T12:17:03.857Z,58.18
2023-03-11T12:20:13.203Z,55.50
2023-03-11T12:22:57.648Z,51.87
2023-03-11T12:25:43.018Z,52.55
2023-03-11T12:28:27.467Z,52.51
2023-03-11T12:30:56.877Z,50.09
2023-03-11T12:33:55.437Z,49.97
2023-03-11T12:36:46.008Z,50.03
2023-03-11T12:39:33.873Z,50.36
2023-03-11T12:42:20.012Z,50.01
2023-03-11T12:44:48.099Z,49.60
2023-03-11T12:47:14.860Z,50.93
2023-03-11T12:49:46.535Z,49.19
2023-03-11T12:52:16.140Z,49.93
2023-03-11T12:54:46.564Z,47.87
2023-03-11T12:57:16.107Z,47.67
2023-03-11T13:00:01.801Z,47.91
2023-03-11T13:02:40.958Z,44.49
2023-03-11T13:05:23.048Z,42.08
2023-03-11T13:07:51.969Z,41.66
2023-03-11T13:10:20.557Z,40.08
2023-03-11T13:12:52.203Z,39.27
2023-03-11T13:15:19.980Z,38.11
2023-03-11T13:17:59.116Z,41.86
2023-03-11T13:20:44.450Z,40.07
2023-03-11T13:23:14.134Z,37.28
2023-03-11T13:26:12.992Z,35.32
2023-03-11T13:28:55.229Z,33.64
2023-03-11T13:31:39.393Z,37.85
2023-03-11T13:34:50.677Z,36.90
2023-03-11T13:37:26.257Z,34.18
2023-03-11T13:40:17.060Z,37.15
2023-03-11T13:42:46.018Z,36.96
2023-03-11T13:45:27.738Z,35.56
2023-03-11T13:47:59.685Z,37.36
2023-03-11T13:50:38.732Z,36.99
2023-03-11T13:53:15.952Z,36.48
2023-03-11T13:55:47.773Z,36.37
2023-03-11T13:58:17.205Z,35.77
2023-03-11T14:00:50.232Z,35.27
2023-03-11T14:03:22.124Z,35.50
2023-03-11T14:06:11.216Z,33.92
2023-03-11T14:08:39.186Z,32.98
2023-03-11T14:11:11.927Z,32.26
2023-03-11T14:13:50.288Z,32.70
2023-03-11T14:16:19.301Z,32.44
2023-03-11T14:18:48.663Z,31.10
2023-03-11T14:21:20.362Z,30.77
2023-03-11T14:23:52.685Z,33.41
2023-03-11T14:26:22.582Z,33.05
2023-03-11T14:28:58.990Z,32.29
2023-03-11T14:31:37.684Z,29.31
2023-03-11T14:34:15.056Z,33.20
2023-03-11T14:36:57.365Z,27.10
2023-03-11T14:39:33.137Z,28.12
2023-03-11T14:42:06.391Z,29.15
2023-03-11T14:44:36.067Z,31.43
2023-03-11T14:47:11.670Z,32.74
2023-03-11T14:49:39.248Z,31.17
2023-03-11T14:52:13.639Z,29.95
2023-03-11T14:54:41.709Z,32.32
2023-03-11T14:57:19.628Z,34.99
2023-03-11T14:59:49.648Z,37.88
2023-03-11T15:02:46.782Z,39.00
2023-03-11T15:05:26.941Z,41.29
2023-03-11T15:07:59.957Z,43.30
2023-03-11T15:10:26.884Z,43.55
2023-03-11T15:13:08.323Z,44.74
2023-03-11T15:15:35.212Z,45.42
2023-03-11T15:18:02.482Z,46.24
2023-03-11T15:20:32.248Z,46.38
2023-03-11T15:23:01.827Z,45.37
2023-03-11T15:25:31.691Z,45.49
2023-03-11T15:27:58.571Z,44.48
2023-03-11T15:30:28.450Z,41.66
2023-03-11T15:32:56.254Z,39.87
2023-03-11T15:35:25.779Z,38.23
2023-03-11T15:38:23.723Z,36.11
2023-03-11T15:41:01.885Z,34.14
2023-03-11T15:43:30.892Z,35.74
2023-03-11T15:45:59.603Z,34.03
2023-03-11T15:48:29.053Z,34.25
2023-03-11T15:50:57.966Z,34.20
2023-03-11T15:53:27.310Z,35.29
2023-03-11T15:55:55.123Z,33.77
2023-03-11T15:58:22.039Z,33.96
2023-03-11T16:00:54.230Z,35.63
2023-03-11T16:03:21.267Z,38.70
2023-03-11T16:05:48.353Z,40.43
2023-03-11T16:08:15.645Z,41.30
2023-03-11T16:10:43.036Z,43.09
2023-03-11T16:13:12.983Z,44.34
2023-03-11T16:15:40.322Z,45.40
2023-03-11T16:18:08.870Z,47.89
2023-03-11T16:20:50.792Z,48.53
2023-03-11T16:23:50.682Z,49.62
2023-03-11T16:26:18.376Z,50.43
2023-03-11T16:28:45.215Z,50.51
2023-03-11T16:31:12.904Z,51.04
2023-03-11T16:33:40.043Z,50.33
2023-03-11T16:36:07.315Z,51.22
2023-03-11T16:38:49.083Z,52.04
2023-03-11T16:41:17.468Z,52.26
2023-03-11T16:43:44.839Z,52.88
2023-03-11T16:46:11.994Z,54.33
2023-03-11T16:48:39.161Z,53.92
2023-03-11T16:51:06.441Z,53.21
2023-03-11T16:53:33.453Z,53.65
2023-03-11T16:56:00.337Z,55.39
2023-03-11T16:58:27.377Z,55.58
2023-03-11T17:00:54.528Z,55.65
2023-03-11T17:03:22.111Z,55.80
2023-03-11T17:05:49.467Z,56.84
2023-03-11T17:08:18.395Z,56.95
2023-03-11T17:10:47.183Z,57.04
2023-03-11T17:13:17.026Z,57.38
2023-03-11T17:15:46.062Z,57.64
2023-03-11T17:18:13.747Z,58.37
2023-03-11T17:20:43.761Z,58.17
2023-03-11T17:23:10.727Z,59.20
2023-03-11T17:25:40.581Z,58.31
2023-03-11T17:28:07.952Z,59.04
2023-03-11T17:30:37.114Z,59.66
2023-03-11T17:33:04.860Z,59.51
2023-03-11T17:35:31.839Z,59.81
2023-03-11T17:37:58.677Z,60.23
2023-03-11T17:40:27.035Z,60.60
2023-03-11T17:42:54.321Z,60.47
2023-03-11T17:45:21.210Z,60.96
2023-03-11T17:47:48.095Z,60.95
2023-03-11T17:50:15.213Z,60.78
2023-03-11T17:52:42.063Z,61.90
2023-03-11T17:55:09.577Z,60.77
2023-03-11T17:57:45.055Z,60.75
2023-03-11T18:00:15.109Z,62.16
2023-03-11T18:02:42.596Z,61.65
2023-03-11T18:05:09.818Z,60.38
2023-03-11T18:07:40.932Z,60.50
2023-03-11T18:10:08.736Z,60.25
2023-03-11T18:12:35.792Z,60.54
2023-03-11T18:15:06.261Z,60.93
2023-03-11T18:17:34.870Z,60.39
2023-03-11T18:20:02.439Z,61.13
2023-03-11T18:22:29.284Z,61.50
2023-03-11T18:24:56.109Z,61.82
2023-03-11T18:27:24.618Z,61.13
2023-03-11T18:29:51.708Z,61.02
2023-03-11T18:32:20.832Z,61.63
2023-03-11T18:34:51.466Z,61.81
2023-03-11T18:37:18.508Z,61.07
2023-03-11T18:39:45.407Z,60.51
2023-03-11T18:42:14.101Z,61.96
2023-03-11T18:44:41.892Z,61.31
2023-03-11T18:47:08.842Z,61.24
2023-03-11T18:49:35.712Z,61.56
2023-03-11T18:52:02.624Z,62.10
2023-03-11T18:54:29.594Z,61.44
2023-03-11T18:56:56.435Z,61.87
2023-03-11T18:59:23.271Z,62.77
2023-03-11T19:01:51.112Z,62.95
2023-03-11T19:04:18.029Z,63.25
2023-03-11T19:06:44.952Z,64.09
2023-03-11T19:09:13.067Z,63.86
2023-03-11T19:11:39.892Z,63.42
2023-03-11T19:14:06.776Z,62.85
2023-03-11T19:16:33.890Z,63.24
2023-03-11T19:19:01.558Z,63.77
2023-03-11T19:21:28.416Z,64.43
2023-03-11T19:23:57.369Z,63.72
2023-03-11T19:26:41.457Z,63.90
2023-03-11T19:29:11.093Z,64.38
2023-03-11T19:31:37.998Z,63.74
2023-03-11T19:34:04.866Z,64.47
2023-03-11T19:36:31.883Z,64.13
2023-03-11T19:38:58.716Z,63.83
2023-03-11T19:41:25.540Z,64.65
2023-03-11T19:43:52.458Z,65.04
2023-03-11T19:46:21.950Z,65.08
2023-03-11T19:48:49.067Z,65.18
2023-03-11T19:51:17.444Z,63.68
2023-03-11T19:53:44.832Z,64.94
2023-03-11T19:56:12.013Z,65.03
2023-03-11T19:58:38.996Z,65.10
2023-03-11T20:01:05.878Z,65.33
2023-03-11T20:03:32.931Z,65.27
2023-03-11T20:06:06.967Z,65.39
2023-03-11T20:08:37.876Z,65.35
2023-03-11T20:11:06.066Z,65.50
2023-03-11T20:13:34.442Z,65.49
2023-03-11T20:16:09.399Z,66.11
2023-03-11T20:18:36.600Z,64.06
2023-03-11T20:21:08.494Z,65.14
2023-03-11T20:23:35.817Z,65.85
2023-03-11T20:26:12.517Z,64.81
2023-03-11T20:28:39.506Z,66.25
2023-03-11T20:31:18.605Z,65.88
2023-03-11T20:33:45.954Z,65.81
2023-03-11T20:36:15.836Z,66.37
2023-03-11T20:38:42.793Z,65.09
2023-03-11T20:41:10.227Z,66.32
2023-03-11T20:43:38.097Z,65.80
2023-03-11T20:46:05.934Z,65.93
2023-03-11T20:48:32.890Z,66.03
2023-03-11T20:51:01.557Z,66.60
2023-03-11T20:53:30.611Z,66.03
2023-03-11T20:55:58.542Z,66.45
2023-03-11T20:58:25.578Z,66.04
2023-03-11T21:00:52.565Z,66.30
2023-03-11T21:03:19.555Z,67.61
2023-03-11T21:05:46.610Z,68.33
2023-03-11T21:08:13.577Z,68.51
2023-03-11T21:10:40.582Z,69.90
2023-03-11T21:13:07.713Z,69.64
2023-03-11T21:15:37.165Z,69.26
2023-03-11T21:18:04.302Z,69.51
2023-03-11T21:20:31.151Z,70.30
2023-03-11T21:22:58.134Z,70.62
2023-03-11T21:25:24.983Z,70.52
2023-03-11T21:27:51.862Z,70.17
2023-03-11T21:30:18.812Z,69.90
2023-03-11T21:32:46.291Z,70.33
2023-03-11T21:35:13.449Z,69.71
2023-03-11T21:37:40.380Z,71.35
2023-03-11T21:40:08.048Z,72.06
2023-03-11T21:42:34.916Z,72.21
2023-03-11T21:45:02.526Z,72.93
2023-03-11T21:47:29.947Z,73.87
2023-03-11T21:49:57.225Z,73.05
2023-03-11T21:52:24.287Z,74.58
2023-03-11T21:54:51.074Z,75.16
2023-03-11T21:57:18.027Z,75.12
2023-03-11T21:59:45.177Z,74.79
2023-03-11T22:02:15.249Z,75.63
2023-03-11T22:04:43.004Z,74.64
2023-03-11T22:07:10.658Z,74.75
2023-03-11T22:09:37.619Z,73.19
2023-03-11T22:12:04.912Z,73.21
2023-03-11T22:14:32.177Z,72.99
2023-03-11T22:16:59.143Z,72.89
2023-03-11T22:19:26.147Z,73.60
2023-03-11T22:21:53.041Z,72.99
2023-03-11T22:24:20.376Z,72.98
2023-03-11T22:26:47.537Z,73.17
2023-03-11T22:29:15.566Z,74.26
2023-03-11T22:31:42.901Z,74.30
2023-03-11T22:34:10.224Z,74.16
2023-03-11T22:36:37.587Z,74.35
2023-03-11T22:39:05.343Z,76.01
2023-03-11T22:41:33.232Z,77.64
2023-03-11T22:44:00.723Z,79.06
2023-03-11T22:46:27.996Z,80.27
2023-03-11T22:48:54.960Z,81.23
2023-03-11T22:51:21.984Z,80.31
2023-03-11T22:53:49.075Z,81.33
2023-03-11T22:56:17.244Z,83.06
2023-03-11T22:58:44.729Z,82.12
2023-03-11T23:01:11.902Z,82.62
2023-03-11T23:03:39.256Z,83.66
2023-03-11T23:06:07.955Z,83.94
2023-03-11T23:08:35.245Z,82.98
2023-03-11T23:11:12.165Z,84.57
2023-03-11T23:13:40.240Z,83.56
2023-03-11T23:16:12.544Z,84.85
2023-03-11T23:18:39.529Z,83.84
2023-03-11T23:21:19.902Z,84.06
2023-03-11T23:23:47.561Z,84.16
2023-03-11T23:26:15.109Z,84.90
2023-03-11T23:28:42.439Z,85.21
2023-03-11T23:31:11.230Z,84.73
2023-03-11T23:33:38.712Z,85.19
2023-03-11T23:36:08.066Z,85.08
2023-03-11T23:38:35.616Z,85.73
2023-03-11T23:41:08.982Z,85.18
2023-03-11T23:43:36.356Z,86.27
2023-03-11T23:46:03.350Z,86.19
2023-03-11T23:48:30.338Z,87.13
2023-03-11T23:50:58.140Z,86.73
2023-03-11T23:53:26.501Z,85.96
2023-03-11T23:55:53.646Z,85.85
2023-03-11T23:58:21.503Z,86.04
